createdAt,value
2018-11-03T00:00:14.198Z,2.87
2018-11-03T00:02:44.273Z,3.13
2018-11-03T00:05:13.758Z,3.93
2018-11-03T00:07:43.309Z,3.37
2018-11-03T00:10:14.532Z,3.17
2018-11-03T00:12:43.779Z,3.20
2018-11-03T00:15:12.986Z,2.87
2018-11-03T00:17:42.230Z,3.00
2018-11-03T00:20:11.419Z,2.93
2018-11-03T00:22:40.652Z,3.23
2018-11-03T00:25:10.634Z,3.57
2018-11-03T00:27:39.894Z,3.07
2018-11-03T00:30:11.282Z,2.80
2018-11-03T00:32:40.519Z,2.80
2018-11-03T00:35:09.727Z,2.77
2018-11-03T00:37:38.913Z,3.10
2018-11-03T00:40:12.381Z,2.90
2018-11-03T00:42:41.754Z,3.10
2018-11-03T00:45:11.890Z,2.97
2018-11-03T00:47:42.055Z,2.90
2018-11-03T00:50:12.871Z,2.67
2018-11-03T00:52:42.369Z,3.13
2018-11-03T00:55:12.281Z,3.37
2018-11-03T00:57:41.931Z,3.40
2018-11-03T01:00:17.618Z,2.80
2018-11-03T01:02:48.077Z,3.13
2018-11-03T01:05:17.354Z,3.30
2018-11-03T01:07:47.110Z,2.90
2018-11-03T01:10:17.125Z,3.23
2018-11-03T01:12:46.322Z,3.13
2018-11-03T01:15:17.377Z,2.70
2018-11-03T01:17:46.693Z,3.03
2018-11-03T01:20:17.072Z,2.67
2018-11-03T01:22:46.318Z,2.53
2018-11-03T01:25:15.677Z,2.80
2018-11-03T01:27:44.880Z,2.93
2018-11-03T01:30:15.349Z,2.97
2018-11-03T01:32:44.592Z,3.13
2018-11-03T01:35:13.801Z,2.70
2018-11-03T01:37:42.997Z,3.17
2018-11-03T01:40:13.435Z,2.63
2018-11-03T01:42:42.636Z,2.87
2018-11-03T01:45:11.886Z,2.97
2018-11-03T01:47:41.082Z,3.13
2018-11-03T01:50:11.694Z,3.00
2018-11-03T01:52:41.577Z,2.83
2018-11-03T01:55:10.780Z,2.80
2018-11-03T01:57:39.952Z,2.80
2018-11-03T02:00:09.825Z,2.97
2018-11-03T02:02:39.154Z,2.87
2018-11-03T02:05:08.954Z,2.87
2018-11-03T02:07:38.109Z,2.73
2018-11-03T02:10:08.419Z,3.17
2018-11-03T02:12:37.633Z,2.90
2018-11-03T02:15:06.997Z,2.80
2018-11-03T02:17:36.122Z,2.70
2018-11-03T02:20:06.292Z,3.30
2018-11-03T02:22:35.493Z,3.43
2018-11-03T02:25:04.706Z,2.77
2018-11-03T02:27:33.929Z,2.67
2018-11-03T02:30:03.125Z,2.80
2018-11-03T02:32:32.303Z,3.00
2018-11-03T02:35:01.515Z,2.60
2018-11-03T02:37:30.671Z,2.90
2018-11-03T02:39:59.858Z,2.90
2018-11-03T02:42:29.047Z,2.70
2018-11-03T02:44:58.272Z,2.70
2018-11-03T02:47:27.451Z,3.10
2018-11-03T02:49:56.641Z,3.03
2018-11-03T02:52:25.847Z,2.93
2018-11-03T02:54:55.061Z,3.03
2018-11-03T02:57:24.270Z,2.33
2018-11-03T02:59:53.494Z,2.90
2018-11-03T03:02:22.655Z,2.90
2018-11-03T03:04:51.814Z,2.90
2018-11-03T03:07:21.137Z,2.80
2018-11-03T03:09:50.326Z,2.80
2018-11-03T03:12:19.522Z,2.77
2018-11-03T03:14:48.699Z,3.10
2018-11-03T03:17:17.910Z,2.63
2018-11-03T03:19:47.131Z,2.83
2018-11-03T03:22:16.373Z,2.90
2018-11-03T03:24:45.572Z,2.67
2018-11-03T03:27:14.826Z,2.90
2018-11-03T03:29:44.040Z,2.50
2018-11-03T03:32:13.270Z,2.77
2018-11-03T03:34:42.445Z,2.53
2018-11-03T03:37:11.794Z,2.90
2018-11-03T03:39:40.970Z,2.83
2018-11-03T03:42:10.145Z,2.73
2018-11-03T03:44:39.327Z,2.50
2018-11-03T03:47:08.556Z,2.70
2018-11-03T03:49:37.757Z,2.50
2018-11-03T03:52:06.980Z,2.63
2018-11-03T03:54:36.151Z,2.87
2018-11-03T03:57:05.380Z,2.77
2018-11-03T03:59:34.559Z,3.00
2018-11-03T04:02:03.788Z,3.10
2018-11-03T04:04:32.945Z,3.00
2018-11-03T04:07:02.178Z,3.30
2018-11-03T04:09:31.367Z,2.90
2018-11-03T04:12:00.581Z,3.30
2018-11-03T04:14:29.756Z,2.97
2018-11-03T04:16:58.934Z,2.90
2018-11-03T04:19:28.115Z,3.07
2018-11-03T04:21:57.309Z,2.43
2018-11-03T04:24:26.475Z,2.53
2018-11-03T04:26:55.657Z,2.50
2018-11-03T04:29:24.845Z,2.93
2018-11-03T04:31:54.050Z,2.60
2018-11-03T04:34:23.222Z,2.50
2018-11-03T04:36:52.436Z,2.63
2018-11-03T04:39:21.616Z,2.57
2018-11-03T04:41:50.804Z,3.00
2018-11-03T04:44:19.964Z,3.00
2018-11-03T04:46:49.174Z,2.77
2018-11-03T04:49:18.347Z,2.80
2018-11-03T04:51:47.574Z,2.83
2018-11-03T04:54:16.749Z,2.67
2018-11-03T04:56:45.953Z,3.00
2018-11-03T04:59:15.123Z,2.40
2018-11-03T05:01:44.334Z,2.50
2018-11-03T05:04:13.527Z,2.70
2018-11-03T05:06:42.721Z,2.60
2018-11-03T05:09:12.071Z,3.00
2018-11-03T05:11:41.256Z,2.90
2018-11-03T05:14:10.938Z,2.80
2018-11-03T05:16:40.102Z,2.73
2018-11-03T05:19:09.439Z,2.30
2018-11-03T05:21:38.624Z,2.83
2018-11-03T05:24:07.805Z,2.50
2018-11-03T05:26:36.997Z,2.83
2018-11-03T05:29:06.372Z,2.60
2018-11-03T05:31:35.586Z,2.43
2018-11-03T05:34:04.905Z,2.50
2018-11-03T05:36:34.174Z,2.77
2018-11-03T05:39:03.522Z,2.90
2018-11-03T05:41:32.689Z,2.53
2018-11-03T05:44:01.886Z,2.73
2018-11-03T05:46:31.128Z,2.57
2018-11-03T05:49:00.296Z,2.70
2018-11-03T05:51:29.568Z,2.70
2018-11-03T05:53:58.733Z,2.70
2018-11-03T05:56:27.938Z,2.83
2018-11-03T05:58:57.165Z,3.13
2018-11-03T06:01:26.612Z,2.50
2018-11-03T06:03:55.789Z,2.30
2018-11-03T06:06:25.026Z,2.90
2018-11-03T06:08:54.228Z,2.70
2018-11-03T06:11:23.422Z,2.93
2018-11-03T06:13:52.615Z,2.60
2018-11-03T06:16:21.832Z,3.00
2018-11-03T06:18:51.008Z,3.00
2018-11-03T06:21:20.327Z,2.90
2018-11-03T06:23:49.497Z,3.03
2018-11-03T06:26:18.748Z,2.53
2018-11-03T06:28:47.934Z,2.87
2018-11-03T06:31:17.340Z,2.70
2018-11-03T06:33:46.641Z,2.63
2018-11-03T06:36:16.056Z,2.80
2018-11-03T06:38:45.268Z,2.40
2018-11-03T06:41:14.450Z,2.80
2018-11-03T06:43:43.608Z,2.90
2018-11-03T06:46:12.840Z,2.87
2018-11-03T06:48:42.075Z,2.77
2018-11-03T06:51:11.333Z,3.10
2018-11-03T06:53:40.502Z,2.90
2018-11-03T06:56:09.714Z,3.67
2018-11-03T06:58:38.894Z,3.00
2018-11-03T07:01:08.149Z,2.80
2018-11-03T07:03:37.320Z,2.50
2018-11-03T07:06:06.657Z,2.97
2018-11-03T07:08:36.393Z,2.93
2018-11-03T07:11:05.660Z,3.27
2018-11-03T07:13:34.870Z,3.43
2018-11-03T07:16:04.087Z,3.30
2018-11-03T07:18:33.262Z,2.97
2018-11-03T07:21:02.474Z,3.00
2018-11-03T07:23:31.664Z,3.13
2018-11-03T07:26:00.885Z,3.00
2018-11-03T07:28:30.091Z,2.93
2018-11-03T07:30:59.352Z,3.17
2018-11-03T07:33:28.505Z,3.70
2018-11-03T07:35:57.730Z,2.70
2018-11-03T07:38:26.959Z,3.10
2018-11-03T07:40:56.314Z,3.03
2018-11-03T07:43:25.470Z,3.10
2018-11-03T07:45:55.137Z,3.50
2018-11-03T07:48:24.504Z,2.80
2018-11-03T07:50:53.566Z,3.43
2018-11-03T07:53:22.778Z,2.87
2018-11-03T07:55:51.987Z,2.97
2018-11-03T07:58:21.217Z,3.57
2018-11-03T08:00:50.423Z,3.57
2018-11-03T08:03:19.678Z,3.53
2018-11-03T08:05:48.972Z,3.40
2018-11-03T08:08:18.203Z,3.50
2018-11-03T08:10:47.382Z,3.57
2018-11-03T08:13:16.653Z,3.77
2018-11-03T08:15:45.908Z,3.87
2018-11-03T08:18:15.147Z,3.67
2018-11-03T08:20:44.340Z,3.87
2018-11-03T08:23:13.620Z,3.57
2018-11-03T08:25:42.816Z,3.70
2018-11-03T08:28:12.041Z,3.90
2018-11-03T08:30:41.370Z,3.63
2018-11-03T08:33:10.647Z,4.73
2018-11-03T08:35:39.844Z,3.97
2018-11-03T08:38:09.074Z,4.43
2018-11-03T08:40:38.252Z,4.00
2018-11-03T08:43:07.553Z,3.60
2018-11-03T08:45:36.726Z,4.37
2018-11-03T08:48:06.368Z,4.47
2018-11-03T08:50:35.774Z,4.27
2018-11-03T08:53:05.088Z,4.83
2018-11-03T08:55:34.292Z,4.53
2018-11-03T08:58:03.518Z,3.77
2018-11-03T09:00:32.696Z,4.00
2018-11-03T09:03:02.006Z,4.23
2018-11-03T09:05:31.186Z,4.73
2018-11-03T09:08:00.387Z,4.93
2018-11-03T09:10:29.583Z,4.30
2018-11-03T09:12:58.757Z,4.50
2018-11-03T09:15:27.915Z,4.13
2018-11-03T09:17:57.030Z,4.60
2018-11-03T09:20:26.228Z,4.10
2018-11-03T09:22:55.444Z,4.47
2018-11-03T09:25:24.630Z,3.83
2018-11-03T09:27:53.788Z,4.80
2018-11-03T09:30:23.023Z,4.70
2018-11-03T09:32:52.267Z,4.70
2018-11-03T09:35:21.483Z,4.47
2018-11-03T09:37:50.732Z,5.10
2018-11-03T09:40:20.110Z,4.93
2018-11-03T09:42:49.785Z,5.20
2018-11-03T09:45:19.047Z,4.93
2018-11-03T09:47:48.294Z,5.13
2018-11-03T09:50:17.549Z,5.30
2018-11-03T09:52:46.840Z,5.40
2018-11-03T09:55:17.444Z,4.80
2018-11-03T09:57:46.730Z,5.27
2018-11-03T10:00:19.079Z,4.90
2018-11-03T10:02:48.302Z,5.13
2018-11-03T10:05:17.694Z,4.43
2018-11-03T10:07:46.950Z,4.73
2018-11-03T10:10:17.399Z,4.70
2018-11-03T10:12:46.609Z,4.77
2018-11-03T10:15:17.224Z,5.10
2018-11-03T10:17:46.872Z,5.43
2018-11-03T10:20:16.066Z,5.20
2018-11-03T10:22:45.370Z,5.00
2018-11-03T10:25:16.197Z,4.80
2018-11-03T10:27:45.760Z,5.03
2018-11-03T10:30:16.032Z,4.57
2018-11-03T10:32:45.449Z,4.43
2018-11-03T10:35:15.128Z,5.20
2018-11-03T10:37:44.506Z,4.30
2018-11-03T10:40:16.045Z,5.13
2018-11-03T10:42:45.559Z,5.27
2018-11-03T10:45:15.820Z,4.70
2018-11-03T10:47:45.398Z,5.30
2018-11-03T10:50:16.683Z,5.07
2018-11-03T10:52:46.457Z,5.23
2018-11-03T10:55:16.930Z,5.17
2018-11-03T10:57:46.244Z,5.70
2018-11-03T11:00:22.832Z,5.60
2018-11-03T11:02:57.242Z,5.73
2018-11-03T11:05:31.603Z,5.13
2018-11-03T11:08:06.057Z,5.43
2018-11-03T11:10:40.238Z,5.47
2018-11-03T11:13:26.579Z,6.17
2018-11-03T11:15:57.512Z,6.07
2018-11-03T11:18:26.727Z,5.73
2018-11-03T11:20:56.028Z,6.13
2018-11-03T11:23:25.356Z,6.10
2018-11-03T11:25:54.518Z,7.03
2018-11-03T11:28:23.806Z,6.23
2018-11-03T11:30:53.055Z,5.93
2018-11-03T11:33:22.280Z,6.47
2018-11-03T11:35:51.531Z,5.93
2018-11-03T11:38:20.762Z,6.40
2018-11-03T11:40:50.509Z,5.80
2018-11-03T11:43:19.900Z,6.30
2018-11-03T11:45:49.095Z,5.47
2018-11-03T11:48:18.314Z,6.00
2018-11-03T11:50:47.616Z,6.03
2018-11-03T11:53:16.798Z,5.53
2018-11-03T11:55:46.018Z,5.30
2018-11-03T11:58:15.247Z,5.83
2018-11-03T12:00:44.525Z,6.17
2018-11-03T12:03:13.718Z,5.10
2018-11-03T12:05:42.941Z,5.43
2018-11-03T12:08:12.148Z,5.67
2018-11-03T12:10:41.434Z,5.00
2018-11-03T12:13:10.660Z,5.70
2018-11-03T12:15:39.902Z,5.90
2018-11-03T12:18:09.105Z,6.40
2018-11-03T12:20:38.382Z,6.27
2018-11-03T12:23:07.632Z,5.93
2018-11-03T12:25:36.941Z,4.97
2018-11-03T12:28:06.112Z,4.77
2018-11-03T12:30:35.365Z,6.30
2018-11-03T12:33:04.850Z,6.33
2018-11-03T12:35:34.122Z,6.40
2018-11-03T12:38:03.381Z,6.53
2018-11-03T12:40:32.807Z,5.87
2018-11-03T12:43:02.084Z,5.93
2018-11-03T12:45:31.358Z,6.23
2018-11-03T12:48:00.641Z,5.37
2018-11-03T12:50:29.864Z,5.67
2018-11-03T12:52:59.058Z,6.00
2018-11-03T12:55:28.313Z,4.90
2018-11-03T12:57:57.541Z,6.27
2018-11-03T13:00:26.688Z,4.70
2018-11-03T13:02:55.952Z,6.23
2018-11-03T13:05:25.231Z,6.60
2018-11-03T13:07:54.407Z,6.40
2018-11-03T13:10:23.654Z,4.73
2018-11-03T13:12:52.869Z,4.87
2018-11-03T13:15:22.102Z,5.47
2018-11-03T13:17:51.359Z,5.00
2018-11-03T13:20:20.624Z,5.73
2018-11-03T13:22:49.906Z,5.00
2018-11-03T13:25:19.121Z,5.07
2018-11-03T13:27:48.374Z,5.93
2018-11-03T13:30:17.577Z,5.67
2018-11-03T13:32:46.817Z,5.80
2018-11-03T13:35:16.003Z,5.77
2018-11-03T13:37:45.240Z,5.73
2018-11-03T13:40:15.033Z,5.03
2018-11-03T13:42:44.768Z,5.63
2018-11-03T13:45:14.031Z,5.53
2018-11-03T13:47:43.378Z,6.40
2018-11-03T13:50:14.074Z,6.50
2018-11-03T13:52:44.968Z,7.20
2018-11-03T13:55:14.226Z,6.77
2018-11-03T13:57:44.574Z,6.67
2018-11-03T14:00:15.397Z,6.20
2018-11-03T14:02:45.547Z,6.30
2018-11-03T14:05:14.755Z,6.40
2018-11-03T14:07:44.020Z,6.60
2018-11-03T14:10:14.853Z,6.27
2018-11-03T14:12:44.737Z,5.30
2018-11-03T14:15:15.390Z,6.27
2018-11-03T14:17:44.778Z,5.80
2018-11-03T14:20:15.003Z,5.97
2018-11-03T14:22:44.992Z,6.80
2018-11-03T14:25:15.665Z,5.50
2018-11-03T14:27:46.004Z,6.07
2018-11-03T14:30:15.512Z,6.53
2018-11-03T14:32:44.841Z,5.93
2018-11-03T14:35:14.957Z,7.00
2018-11-03T14:37:44.180Z,7.30
2018-11-03T14:40:15.832Z,5.87
2018-11-03T14:42:45.656Z,5.73
2018-11-03T14:45:15.887Z,5.67
2018-11-03T14:47:45.112Z,6.33
2018-11-03T14:50:14.358Z,7.30
2018-11-03T14:52:44.278Z,6.57
2018-11-03T14:55:13.889Z,6.87
2018-11-03T14:57:43.137Z,7.73
2018-11-03T15:00:15.044Z,7.27
2018-11-03T15:02:44.281Z,7.20
2018-11-03T15:05:13.822Z,6.97
2018-11-03T15:07:43.051Z,6.87
2018-11-03T15:10:13.126Z,7.03
2018-11-03T15:12:43.696Z,7.10
2018-11-03T15:15:14.320Z,7.40
2018-11-03T15:17:43.942Z,7.07
2018-11-03T15:20:13.334Z,7.20
2018-11-03T15:22:43.325Z,7.47
2018-11-03T15:25:12.724Z,7.70
2018-11-03T15:27:42.594Z,7.57
2018-11-03T15:30:13.049Z,7.63
2018-11-03T15:32:42.621Z,8.07
2018-11-03T15:35:12.799Z,7.43
2018-11-03T15:37:41.953Z,8.47
2018-11-03T15:40:13.139Z,9.57
2018-11-03T15:42:42.786Z,9.07
2018-11-03T15:45:15.337Z,9.23
2018-11-03T15:47:45.160Z,8.70
2018-11-03T15:50:15.074Z,8.83
2018-11-03T15:52:45.014Z,8.60
2018-11-03T15:55:14.392Z,12.70
2018-11-03T15:57:43.743Z,15.13
2018-11-03T16:00:15.787Z,15.00
2018-11-03T16:02:45.262Z,18.20
2018-11-03T16:05:14.609Z,15.27
2018-11-03T16:07:44.505Z,15.17
2018-11-03T16:10:13.771Z,13.03
2018-11-03T16:12:43.030Z,12.33
2018-11-03T16:15:13.148Z,10.00
2018-11-03T16:17:42.981Z,11.60
2018-11-03T16:20:13.166Z,10.77
2018-11-03T16:22:43.259Z,10.70
2018-11-03T16:25:12.443Z,12.13
2018-11-03T16:27:41.743Z,12.03
2018-11-03T16:30:14.163Z,12.50
2018-11-03T16:32:43.678Z,10.37
2018-11-03T16:35:12.700Z,11.27
2018-11-03T16:37:42.354Z,11.70
2018-11-03T16:40:13.368Z,10.73
2018-11-03T16:42:43.317Z,11.30
2018-11-03T16:45:13.758Z,11.07
2018-11-03T16:47:43.696Z,10.43
2018-11-03T16:50:13.905Z,11.33
2018-11-03T16:52:43.391Z,13.17
2018-11-03T16:55:13.632Z,12.47
2018-11-03T16:57:42.882Z,12.40
2018-11-03T17:00:14.890Z,12.37
2018-11-03T17:02:44.200Z,12.00
2018-11-03T17:05:14.468Z,11.40
2018-11-03T17:07:43.688Z,12.03
2018-11-03T17:10:14.397Z,11.57
2018-11-03T17:12:44.985Z,11.40
2018-11-03T17:15:14.493Z,13.27
2018-11-03T17:17:43.710Z,11.97
2018-11-03T17:20:13.045Z,11.63
2018-11-03T17:22:42.267Z,11.97
2018-11-03T17:25:12.308Z,13.17
2018-11-03T17:27:41.501Z,14.80
2018-11-03T17:30:13.401Z,13.60
2018-11-03T17:32:43.250Z,12.37
2018-11-03T17:35:13.016Z,12.90
2018-11-03T17:37:42.472Z,12.97
2018-11-03T17:40:20.056Z,13.63
2018-11-03T17:45:44.257Z,11.87
2018-11-03T17:48:19.547Z,11.77
2018-11-03T17:50:53.712Z,17.17
2018-11-03T17:53:27.469Z,12.30
2018-11-03T17:56:02.248Z,12.23
2018-11-03T17:58:35.595Z,12.47
2018-11-03T18:01:17.210Z,12.23
2018-11-03T18:03:55.190Z,11.87
2018-11-03T18:06:28.179Z,12.37
2018-11-03T18:09:03.258Z,11.57
2018-11-03T18:11:36.816Z,12.77
2018-11-03T18:14:11.053Z,12.20
2018-11-03T18:16:43.652Z,12.60
2018-11-03T18:19:17.253Z,12.37
2018-11-03T18:21:53.206Z,13.00
2018-11-03T18:24:26.809Z,13.20
2018-11-03T18:27:02.358Z,12.80
2018-11-03T18:29:42.069Z,12.50
2018-11-03T18:32:23.069Z,12.80
2018-11-03T18:35:03.021Z,14.20
2018-11-03T18:37:40.361Z,12.43
2018-11-03T18:40:15.322Z,13.23
2018-11-03T18:42:55.881Z,14.37
2018-11-03T18:45:31.332Z,13.87
2018-11-03T18:48:05.037Z,14.43
2018-11-03T18:53:18.377Z,14.33
2018-11-03T18:55:47.635Z,14.20
2018-11-03T18:58:16.870Z,14.50
2018-11-03T19:00:46.133Z,15.47
2018-11-03T19:03:15.347Z,14.23
2018-11-03T19:05:44.643Z,13.73
2018-11-03T19:08:13.863Z,13.50
2018-11-03T19:10:43.109Z,14.67
2018-11-03T19:13:12.404Z,14.20
2018-11-03T19:15:41.636Z,14.40
2018-11-03T19:18:10.881Z,14.50
2018-11-03T19:20:40.149Z,14.43
2018-11-03T19:23:09.378Z,18.90
2018-11-03T19:25:38.654Z,16.70
2018-11-03T19:28:07.880Z,15.70
2018-11-03T19:30:37.134Z,14.90
2018-11-03T19:33:06.651Z,16.03
2018-11-03T19:35:35.937Z,18.43
2018-11-03T19:38:05.157Z,18.57
2018-11-03T19:40:34.545Z,15.80
2018-11-03T19:43:03.752Z,17.80
2018-11-03T19:45:32.995Z,18.00
2018-11-03T19:48:02.276Z,18.80
2018-11-03T19:50:31.536Z,19.00
2018-11-03T19:53:00.777Z,17.47
2018-11-03T19:55:30.074Z,18.03
2018-11-03T19:57:59.315Z,17.37
2018-11-03T20:00:28.564Z,16.70
2018-11-03T20:02:57.821Z,13.67
2018-11-03T20:05:27.084Z,13.77
2018-11-03T20:07:56.403Z,14.27
2018-11-03T20:10:25.631Z,12.93
2018-11-03T20:12:54.897Z,12.63
2018-11-03T20:15:24.136Z,12.70
2018-11-03T20:17:53.410Z,12.40
2018-11-03T20:20:22.642Z,10.73
2018-11-03T20:22:51.869Z,10.47
2018-11-03T20:25:21.080Z,9.57
2018-11-03T20:27:50.356Z,10.27
2018-11-03T20:30:19.571Z,10.53
2018-11-03T20:32:48.820Z,10.17
2018-11-03T20:35:18.003Z,10.00
2018-11-03T20:37:47.199Z,11.30
2018-11-03T20:40:16.410Z,10.23
2018-11-03T20:42:45.652Z,9.53
2018-11-03T20:45:15.055Z,10.03
2018-11-03T20:47:44.311Z,10.67
2018-11-03T20:50:14.833Z,9.17
2018-11-03T20:52:44.056Z,9.57
2018-11-03T20:55:13.606Z,9.33
2018-11-03T20:57:43.144Z,10.47
2018-11-03T21:00:13.906Z,10.43
2018-11-03T21:02:43.445Z,9.93
2018-11-03T21:05:12.858Z,8.50
2018-11-03T21:07:42.942Z,10.00
2018-11-03T21:10:12.216Z,10.67
2018-11-03T21:12:41.434Z,11.20
2018-11-03T21:15:10.666Z,9.57
2018-11-03T21:17:39.913Z,9.30
2018-11-03T21:20:09.372Z,9.63
2018-11-03T21:22:38.753Z,10.00
2018-11-03T21:25:07.942Z,8.97
2018-11-03T21:27:37.174Z,9.07
2018-11-03T21:30:07.439Z,9.47
2018-11-03T21:32:36.872Z,9.93
2018-11-03T21:35:06.296Z,9.80
2018-11-03T21:37:35.570Z,10.57
2018-11-03T21:40:05.038Z,12.20
2018-11-03T21:42:35.168Z,10.53
2018-11-03T21:45:04.425Z,9.97
2018-11-03T21:47:33.695Z,10.30
2018-11-03T21:50:02.908Z,10.20
2018-11-03T21:52:32.210Z,10.67
2018-11-03T21:55:01.511Z,11.07
2018-11-03T21:57:30.764Z,10.20
2018-11-03T21:59:59.971Z,11.30
2018-11-03T22:02:29.293Z,10.73
2018-11-03T22:04:58.542Z,11.33
2018-11-03T22:07:27.854Z,10.23
2018-11-03T22:09:57.177Z,10.43
2018-11-03T22:12:26.536Z,11.43
2018-11-03T22:14:55.797Z,11.80
2018-11-03T22:17:25.104Z,10.73
2018-11-03T22:19:54.520Z,11.03
2018-11-03T22:22:23.819Z,10.27
2018-11-03T22:24:53.087Z,10.13
2018-11-03T22:27:22.411Z,10.83
2018-11-03T22:29:51.624Z,10.03
2018-11-03T22:32:20.870Z,10.40
2018-11-03T22:34:50.122Z,10.37
2018-11-03T22:37:19.480Z,10.00
2018-11-03T22:39:48.734Z,10.53
2018-11-03T22:42:18.049Z,10.87
2018-11-03T22:44:47.315Z,9.70
2018-11-03T22:47:16.525Z,9.00
2018-11-03T22:49:45.811Z,9.93
2018-11-03T22:52:15.053Z,9.83
2018-11-03T22:54:44.274Z,8.43
2018-11-03T22:57:13.555Z,9.43
2018-11-03T22:59:42.782Z,9.50
2018-11-03T23:02:12.024Z,9.17
2018-11-03T23:04:41.300Z,10.27
2018-11-03T23:07:10.526Z,10.00
2018-11-03T23:09:39.795Z,10.00
2018-11-03T23:12:09.014Z,10.03
2018-11-03T23:14:38.240Z,9.17
2018-11-03T23:17:07.432Z,9.47
2018-11-03T23:19:36.639Z,8.97
2018-11-03T23:22:06.011Z,10.07
2018-11-03T23:24:35.243Z,10.03
2018-11-03T23:27:04.433Z,9.77
2018-11-03T23:29:34.931Z,10.07
2018-11-03T23:32:04.137Z,9.50
2018-11-03T23:34:33.384Z,9.33
2018-11-03T23:37:02.594Z,11.17
2018-11-03T23:39:31.878Z,8.67
2018-11-03T23:42:01.079Z,8.97
2018-11-03T23:44:30.316Z,10.97
2018-11-03T23:46:59.582Z,10.00
2018-11-03T23:49:28.818Z,9.50
2018-11-03T23:51:58.055Z,10.37
2018-11-03T23:54:27.306Z,9.53
2018-11-03T23:56:56.540Z,10.00
2018-11-03T23:59:25.826Z,9.53
